Flight Track Log - Related Links

Times and Time Zones

All times are in EDT time to prevent confusion due to time zone crossing. See the DAL150 flight status page for this flight to view local times or setup timezone preferences in your user account.

Time Position Orientation Groundspeed Altitude Reporting Facility
EDT Latitude Longitude Course Direction KTS MPH feet Rate Location/Type
Sun 06:58:15 AM 23.1714 -81.1051 95° East  Level FlightAware Approximate
Sun 06:59:50 AM 23.1503 -80.8372 337° Northwest 462 532 34,000  Level Miami Center
Sun 07:00:50 AM 23.2656 -80.8906 338° Northwest 451 519 34,000  Level Miami Center
Sun 07:01:50 AM 23.3814 -80.9417 339° North 451 519 34,000  Level Miami Center
Sun 07:02:50 AM 23.4969 -80.9906 336° Northwest 451 519 34,000  Level Miami Center
Sun 07:03:50 AM 23.6122 -81.0467 339° North 451 519 34,000  Level Miami Center
Sun 07:04:50 AM 23.7278 -81.0958 338° Northwest 446 513 34,000  Level Miami Center
Sun 07:05:50 AM 23.8350 -81.1425 338° Northwest 452 520 34,000  Level Miami Center
Sun 07:06:50 AM 23.9486 -81.1939 343° North 452 520 34,000  Level Miami Center
Sun 07:07:50 AM 24.0725 -81.2347 350° North 452 520 34,000  Level Miami Center
Sun 07:08:50 AM 24.2014 -81.2597 351° North 452 520 34,000  Level Miami Center
Sun 07:09:50 AM 24.3303 -81.2825 349° North 463 533 34,000  Level Miami Center
Sun 07:10:50 AM 24.4631 -81.3100 350° North 474 545 34,000  Level Miami Center
Sun 07:11:50 AM 24.5981 -81.3353 350° North 480 552 34,000 -50 Level Miami Center
Sun 07:12:50 AM 24.7372 -81.3633 349° North 492 566 33,900  Descending Miami Center
Sun 07:13:50 AM 24.8719 -81.3911 350° North 492 566 34,000 50 Climbing Miami Center
Sun 07:14:50 AM 25.0069 -81.4167 350° North 492 566 34,000 700 Level Miami Center
Sun 07:15:50 AM 25.1397 -81.4422 349° North 487 560 35,400 950 Climbing Miami Center
Sun 07:16:50 AM 25.2706 -81.4700 351° North 480 552 35,900 300 Climbing Miami Center
Sun 07:17:50 AM 25.3972 -81.4933 350° North 474 545 36,000 50 Climbing Miami Center
Sun 07:18:50 AM 25.5258 -81.5189 350° North 474 545 36,000  Level Miami Center
Sun 07:19:50 AM 25.6544 -81.5447 350° North 469 540 36,000  Level Miami Center
Sun 07:20:50 AM 25.7872 -81.5706 351° North 469 540 36,000  Level Miami Center
Sun 07:21:50 AM 25.9203 -81.5942 349° North 469 540 36,000  Level Miami Center
Sun 07:22:50 AM 26.0486 -81.6225 350° North 474 545 36,000  Level Miami Center
Sun 07:23:50 AM 26.1794 -81.6486 350° North 474 545 36,000  Level Miami Center
Sun 07:24:50 AM 26.3100 -81.6747 351° North 474 545 36,000  Level Miami Center
Sun 07:25:50 AM 26.4431 -81.6986 349° North 474 545 36,000  Level Miami Center
Sun 07:26:50 AM 26.5694 -81.7269 349° North 474 545 36,000  Level Miami Center
Sun 07:27:50 AM 26.7019 -81.7558 351° North 474 545 36,000  Level Miami Center
Sun 07:28:50 AM 26.8347 -81.7800 350° North 480 552 36,000  Level Miami Center
Sun 07:29:50 AM 26.9653 -81.8064 350° North 480 552 36,000  Level Miami Center
Sun 07:30:50 AM 27.0981 -81.8331 350° North 480 552 36,000  Level Miami Center
Sun 07:31:50 AM 27.2431 -81.8625 350° North 481 554 36,000  Level Miami Center
Sun 07:32:50 AM 27.3758 -81.8894 350° North 481 554 36,000  Level Miami Center
Sun 07:33:50 AM 27.5064 -81.9161 350° North 481 554 36,000  Level Miami Center
Sun 07:34:50 AM 27.6264 -81.9403 350° North 481 554 36,000  Level Miami Center
Sun 07:35:50 AM 27.7694 -81.9700 350° North 481 554 36,000  Level Miami Center
Sun 07:37:21 AM 27.9550 -82.0067 335° Northwest 484 557 36,000  Level Jacksonville Center
Sun 07:38:21 AM 28.0658 -82.0647 328° Northwest 465 535 36,000  Level Jacksonville Center
Sun 07:39:21 AM 28.1728 -82.1392 328° Northwest 445 512 36,000  Level Jacksonville Center
Sun 07:40:21 AM 28.2753 -82.2114 328° Northwest 445 512 36,000  Level Jacksonville Center
Sun 07:41:21 AM 28.3822 -82.2861 328° Northwest 445 512 36,000  Level Jacksonville Center
Sun 07:42:21 AM 28.4847 -82.3589 329° Northwest 445 512 36,000  Level Jacksonville Center
Sun 07:43:21 AM 28.5914 -82.4317 329° Northwest 439 505 36,000  Level Jacksonville Center
Sun 07:44:21 AM 28.7025 -82.5092 329° Northwest 439 505 36,000  Level Jacksonville Center
Sun 07:45:21 AM 28.8089 -82.5822 328° Northwest 434 499 36,000  Level Jacksonville Center
Sun 07:46:21 AM 28.8925 -82.6411 329° Northwest 434 499 36,000  Level Jacksonville Center
Sun 07:47:21 AM 29.0075 -82.7217 328° Northwest 434 499 36,000  Level Jacksonville Center
Sun 07:48:21 AM 29.1142 -82.7975 329° Northwest 434 499 36,000  Level Jacksonville Center
Sun 07:49:21 AM 29.2228 -82.8736 328° Northwest 440 506 36,000  Level Jacksonville Center
Sun 07:50:21 AM 29.3292 -82.9497 328° Northwest 445 512 36,000  Level Jacksonville Center
Sun 07:51:21 AM 29.4397 -83.0286 327° Northwest 455 524 36,000  Level Jacksonville Center
Sun 07:52:21 AM 29.5564 -83.1147 329° Northwest 448 516 36,000  Level Jacksonville Center
Sun 07:53:21 AM 29.6586 -83.1867 327° Northwest 443 510 36,000  Level Jacksonville Center
Sun 07:54:21 AM 29.7525 -83.2561 329° Northwest 443 510 36,000  Level Jacksonville Center
Sun 07:55:21 AM 29.8544 -83.3261 329° Northwest 443 510 36,000  Level Jacksonville Center
Sun 07:56:21 AM 29.9586 -83.3983 328° Northwest 437 503 36,000  Level Jacksonville Center
Sun 07:57:21 AM 30.0606 -83.4733 328° Northwest 437 503 36,000  Level Jacksonville Center
Sun 07:58:21 AM 30.1625 -83.5461 327° Northwest 432 497 36,000  Level Jacksonville Center
Sun 07:59:21 AM 30.2622 -83.6214 328° Northwest 432 497 36,000  Level Jacksonville Center
Sun 08:00:21 AM 30.3642 -83.6942 328° Northwest 432 497 36,000  Level Jacksonville Center
Sun 08:01:21 AM 30.4681 -83.7700 328° Northwest 432 497 36,000  Level Jacksonville Center
Sun 08:02:21 AM 30.5781 -83.8506 328° Northwest 432 497 36,000 -50 Level Jacksonville Center
Sun 08:03:21 AM 30.6842 -83.9289 328° Northwest 438 504 35,900 -800 Descending Jacksonville Center
Sun 08:04:21 AM 30.7900 -84.0050 327° Northwest 438 504 34,400 -950 Descending Jacksonville Center
Sun 08:05:21 AM 30.8956 -84.0836 327° Northwest 444 511 34,000 -200 Descending Jacksonville Center
Sun 08:06:21 AM 31.0014 -84.1625 328° Northwest 449 517 34,000  Level Jacksonville Center
Sun 08:07:21 AM 31.1111 -84.2417 327° Northwest 454 522 34,000  Level Jacksonville Center
Sun 08:08:21 AM 31.2169 -84.3211 327° Northwest 449 517 34,000  Level Jacksonville Center
Sun 08:09:52 AM 31.3744 -84.4403 328° Northwest 468 539 34,000  Level Atlanta Center
Sun 08:10:51 AM 31.4764 -84.5161 328° Northwest 462 532 34,000  Level Atlanta Center
Sun 08:11:51 AM 31.5847 -84.5947 326° Northwest 456 525 34,000  Level Atlanta Center
Sun 08:12:51 AM 31.6844 -84.6733 328° Northwest 456 525 34,000 -250 Level Atlanta Center
Sun 08:13:51 AM 31.7906 -84.7522 321° Northwest 451 519 33,500 -550 Descending Atlanta Center
Sun 08:14:51 AM 31.8797 -84.8386 309° West 438 504 32,900 -800 Descending Atlanta Center
Sun 08:15:51 AM 31.9500 -84.9394 306° West 409 471 31,900 -1,200 Descending Atlanta Center
Sun 08:16:51 AM 32.0139 -85.0431 308° West 403 464 30,500 -1,200 Descending Atlanta Center
Sun 08:17:51 AM 32.0758 -85.1369 308° West 389 448 29,500 -1,100 Descending Atlanta Center
Sun 08:18:51 AM 32.1272 -85.2136 305° West 353 406 28,300 -1,450 Descending Atlanta Center
Sun 08:19:51 AM 32.1806 -85.3028 305° West 332 382 26,600 -1,700 Descending Atlanta Center
Sun 08:20:51 AM 32.2358 -85.3967 319° Northwest 327 376 24,900 -1,300 Descending Atlanta Center
Sun 08:21:51 AM 32.3000 -85.4617 332° Northwest 308 354 24,000 -950 Descending Atlanta Center
Sun 08:22:51 AM 32.3786 -85.5119 331° Northwest 308 354 23,000 -1,300 Descending Atlanta Center
Sun 08:23:51 AM 32.4531 -85.5600 360° North 313 360 21,400 -1,650 Descending Atlanta Center
Sun 08:24:51 AM 32.5408 -85.5592 37° Northeast 296 341 19,700 -1,350 Descending Atlanta Center
Sun 08:25:51 AM 32.6125 -85.4961 36° Northeast 288 331 18,700 -1,100 Descending Atlanta Center
Sun 08:26:51 AM 32.6886 -85.4308 34° Northeast 319 367 17,500 -1,000 Descending Atlanta Center
Sun 08:27:51 AM 32.7600 -85.3728 34° Northeast 325 374 16,700 -800 Descending Atlanta Center
Sun 08:28:51 AM 32.8358 -85.3119 34° Northeast 325 374 15,900 -800 Descending Atlanta Center
Sun 08:29:51 AM 32.9075 -85.2536 35° Northeast 320 368 15,100 -800 Descending Atlanta Center
Sun 08:30:51 AM 32.9769 -85.1953 31° Northeast 309 356 14,300 -550 Descending Atlanta Center
Sun 08:31:51 AM 33.0419 -85.1489 35° Northeast 304 350 14,000 -150 Descending Atlanta Center
Sun 08:32:51 AM 33.1114 -85.0903 36° Northeast 304 350 14,000  Level Atlanta Center
Sun 08:33:52 AM 33.1828 -85.0292 47° Northeast 310 357 14,000 -550 Level Atlanta Center
Sun 08:34:51 AM 33.2419 -84.9528 48° Northeast 310 357 12,900 -1,008 Descending Atlanta Center
Sun 08:35:51 AM 33.3008 -84.8739 48° Northeast 305 351 12,000 -450 Descending Atlanta Center
Sun 08:36:51 AM 33.3642 -84.7900 48° Northeast 305 351 12,000  Level Atlanta Center
Sun 08:37:51 AM 33.4208 -84.7133 48° Northeast 305 351 12,000  Level Atlanta Center
Sun 08:38:51 AM 33.4775 -84.6367 47° Northeast 300 345 12,000  Level Atlanta Center
Sun 08:39:51 AM 33.5322 -84.5672 79° East 300 345 12,000 -700 Level Atlanta Center
Sun 08:40:51 AM 33.5450 -84.4850 88° East 248 285 10,600 -1,457 Descending Atlanta Center
Sun 08:42:44 AM 33.5500 -84.3167 90° East 252 290 7,800 -1,422 Descending Atlanta TRACON
Sun 08:43:44 AM 33.5500 -84.2333 90° East 247 284 6,500 -1,250 Descending Atlanta TRACON
Sun 08:44:44 AM 33.5500 -84.1500 90° East 235 270 5,300 -1,100 Descending Atlanta TRACON
Sun 08:45:44 AM 33.5500 -84.0833 40° Northeast 221 254 4,300 -650 Descending Atlanta TRACON
Sun 08:46:44 AM 33.5833 -84.0500 309° West 199 229 4,000 -300 Descending Atlanta TRACON
Sun 08:47:44 AM 33.6167 -84.1000 270° West 195 224 3,700 -250 Descending Atlanta TRACON
Sun 08:48:44 AM 33.6167 -84.1667 270° West 194 223 3,500 -100 Descending Atlanta TRACON
Sun 08:49:44 AM 33.6167 -84.2333 270° West 197 227 3,500 -200 Level Atlanta TRACON
Sun 08:50:44 AM 33.6167 -84.2833 270° West 192 221 3,100 -650 Descending Atlanta TRACON
Sun 08:51:44 AM 33.6167 -84.3500 270° West 161 185 2,200 -850 Descending Atlanta TRACON
Sun 08:52:44 AM 33.6167 -84.4000 270° West 154 177 1,400 -800 Descending Atlanta TRACON

Login

Don't have an account? Register now (free) for customized features, flight alerts, and more!